sensor_id;sensor_type;location;lat;lon;timestamp;P1;P2;P0
47982;PMS5003;33751;50.816;-1.214;2022-12-17T00:00:03;58;54;
47982;PMS5003;33751;50.816;-1.214;2022-12-17T00:02:30;59;55;
47982;PMS5003;33751;50.816;-1.214;2022-12-17T00:04:57;56;53;
47982;PMS5003;33751;50.816;-1.214;2022-12-17T00:07:24;57;57;
47982;PMS5003;33751;50.816;-1.214;2022-12-17T00:09:50;54;46;
47982;PMS5003;33751;50.816;-1.214;2022-12-17T00:12:17;73;65;
47982;PMS5003;33751;50.816;-1.214;2022-12-17T00:14:44;74;67;
47982;PMS5003;33751;50.816;-1.214;2022-12-17T00:17:11;59;52;
47982;PMS5003;33751;50.816;-1.214;2022-12-17T00:19:38;66;53;
47982;PMS5003;33751;50.816;-1.214;2022-12-17T00:22:05;57;53;
47982;PMS5003;33751;50.816;-1.214;2022-12-17T00:24:32;56;45;
47982;PMS5003;33751;50.816;-1.214;2022-12-17T00:26:58;56;54;
47982;PMS5003;33751;50.816;-1.214;2022-12-17T00:29:25;60;57;
47982;PMS5003;33751;50.816;-1.214;2022-12-17T00:31:52;58;57;
47982;PMS5003;33751;50.816;-1.214;2022-12-17T00:34:18;57;54;
47982;PMS5003;33751;50.816;-1.214;2022-12-17T00:36:46;65;60;
47982;PMS5003;33751;50.816;-1.214;2022-12-17T00:39:12;57;49;
47982;PMS5003;33751;50.816;-1.214;2022-12-17T00:41:39;57;48;
47982;PMS5003;33751;50.816;-1.214;2022-12-17T00:44:06;57;51;
47982;PMS5003;33751;50.816;-1.214;2022-12-17T00:46:33;54;49;
47982;PMS5003;33751;50.816;-1.214;2022-12-17T00:49:00;57;50;
47982;PMS5003;33751;50.816;-1.214;2022-12-17T00:51:28;61;50;
47982;PMS5003;33751;50.816;-1.214;2022-12-17T00:53:55;61;53;
47982;PMS5003;33751;50.816;-1.214;2022-12-17T00:56:22;63;59;
47982;PMS5003;33751;50.816;-1.214;2022-12-17T00:58:49;67;60;
47982;PMS5003;33751;50.816;-1.214;2022-12-17T01:01:16;54;47;
47982;PMS5003;33751;50.816;-1.214;2022-12-17T01:03:43;60;52;
47982;PMS5003;33751;50.816;-1.214;2022-12-17T01:06:09;61;56;
47982;PMS5003;33751;50.816;-1.214;2022-12-17T01:08:36;50;44;
47982;PMS5003;33751;50.816;-1.214;2022-12-17T01:11:04;56;49;
47982;PMS5003;33751;50.816;-1.214;2022-12-17T01:13:33;55;47;
47982;PMS5003;33751;50.816;-1.214;2022-12-17T01:16:01;57;51;
47982;PMS5003;33751;50.816;-1.214;2022-12-17T01:18:29;57;54;
47982;PMS5003;33751;50.816;-1.214;2022-12-17T01:20:56;56;49;
47982;PMS5003;33751;50.816;-1.214;2022-12-17T01:23:22;53;45;
47982;PMS5003;33751;50.816;-1.214;2022-12-17T01:25:51;57;53;
47982;PMS5003;33751;50.816;-1.214;2022-12-17T01:28:20;54;44;
47982;PMS5003;33751;50.816;-1.214;2022-12-17T01:30:48;49;48;
47982;PMS5003;33751;50.816;-1.214;2022-12-17T01:33:14;55;46;
47982;PMS5003;33751;50.816;-1.214;2022-12-17T01:35:41;46;43;
47982;PMS5003;33751;50.816;-1.214;2022-12-17T01:38:09;56;46;
47982;PMS5003;33751;50.816;-1.214;2022-12-17T01:40:36;49;45;
47982;PMS5003;33751;50.816;-1.214;2022-12-17T01:43:04;52;48;
47982;PMS5003;33751;50.816;-1.214;2022-12-17T01:45:35;58;48;
47982;PMS5003;33751;50.816;-1.214;2022-12-17T01:48:07;46;43;
47982;PMS5003;33751;50.816;-1.214;2022-12-17T01:50:40;43;39;
47982;PMS5003;33751;50.816;-1.214;2022-12-17T01:53:09;61;49;
47982;PMS5003;33751;50.816;-1.214;2022-12-17T01:55:37;47;40;
47982;PMS5003;33751;50.816;-1.214;2022-12-17T01:58:05;58;48;
47982;PMS5003;33751;50.816;-1.214;2022-12-17T02:00:31;52;47;
47982;PMS5003;33751;50.816;-1.214;2022-12-17T02:02:59;52;46;
47982;PMS5003;33751;50.816;-1.214;2022-12-17T02:05:27;48;46;
47982;PMS5003;33751;50.816;-1.214;2022-12-17T02:08:02;51;45;
47982;PMS5003;33751;50.816;-1.214;2022-12-17T02:10:38;49;45;
47982;PMS5003;33751;50.816;-1.214;2022-12-17T02:13:14;51;44;
47982;PMS5003;33751;50.816;-1.214;2022-12-17T02:15:45;46;43;
47982;PMS5003;33751;50.816;-1.214;2022-12-17T02:18:17;48;43;
47982;PMS5003;33751;50.816;-1.214;2022-12-17T02:20:49;51;46;
47982;PMS5003;33751;50.816;-1.214;2022-12-17T02:23:23;43;41;
47982;PMS5003;33751;50.816;-1.214;2022-12-17T02:25:59;44;40;
47982;PMS5003;33751;50.816;-1.214;2022-12-17T02:28:29;49;47;
47982;PMS5003;33751;50.816;-1.214;2022-12-17T02:30:58;44;42;
47982;PMS5003;33751;50.816;-1.214;2022-12-17T02:33:25;45;40;
47982;PMS5003;33751;50.816;-1.214;2022-12-17T02:35:56;47;40;
47982;PMS5003;33751;50.816;-1.214;2022-12-17T02:38:29;46;42;
47982;PMS5003;33751;50.816;-1.214;2022-12-17T02:40:57;46;42;
47982;PMS5003;33751;50.816;-1.214;2022-12-17T02:43:24;45;42;
47982;PMS5003;33751;50.816;-1.214;2022-12-17T02:45:53;46;42;
47982;PMS5003;33751;50.816;-1.214;2022-12-17T02:48:20;47;41;
47982;PMS5003;33751;50.816;-1.214;2022-12-17T02:50:48;35;30;
47982;PMS5003;33751;50.816;-1.214;2022-12-17T02:53:14;37;33;
47982;PMS5003;33751;50.816;-1.214;2022-12-17T02:55:41;44;38;
47982;PMS5003;33751;50.816;-1.214;2022-12-17T02:58:09;36;34;
47982;PMS5003;33751;50.816;-1.214;2022-12-17T03:00:36;36;32;
47982;PMS5003;33751;50.816;-1.214;2022-12-17T03:03:03;39;37;
47982;PMS5003;33751;50.816;-1.214;2022-12-17T03:05:30;54;44;
47982;PMS5003;33751;50.816;-1.214;2022-12-17T03:07:57;43;39;
47982;PMS5003;33751;50.816;-1.214;2022-12-17T03:10:23;39;37;
47982;PMS5003;33751;50.816;-1.214;2022-12-17T03:12:50;42;35;
47982;PMS5003;33751;50.816;-1.214;2022-12-17T03:15:17;34;30;
47982;PMS5003;33751;50.816;-1.214;2022-12-17T03:17:44;39;38;
47982;PMS5003;33751;50.816;-1.214;2022-12-17T03:20:11;39;36;
47982;PMS5003;33751;50.816;-1.214;2022-12-17T03:22:38;42;37;
47982;PMS5003;33751;50.816;-1.214;2022-12-17T03:25:05;41;40;
47982;PMS5003;33751;50.816;-1.214;2022-12-17T03:27:32;41;32;
47982;PMS5003;33751;50.816;-1.214;2022-12-17T03:29:59;37;34;
47982;PMS5003;33751;50.816;-1.214;2022-12-17T03:32:26;35;32;
47982;PMS5003;33751;50.816;-1.214;2022-12-17T03:34:52;36;32;
47982;PMS5003;33751;50.816;-1.214;2022-12-17T03:37:19;44;37;
47982;PMS5003;33751;50.816;-1.214;2022-12-17T03:39:46;27;26;
47982;PMS5003;33751;50.816;-1.214;2022-12-17T03:42:13;41;38;
47982;PMS5003;33751;50.816;-1.214;2022-12-17T03:44:40;43;39;
47982;PMS5003;33751;50.816;-1.214;2022-12-17T03:47:07;37;34;
47982;PMS5003;33751;50.816;-1.214;2022-12-17T03:49:33;29;27;
47982;PMS5003;33751;50.816;-1.214;2022-12-17T03:52:00;33;32;
47982;PMS5003;33751;50.816;-1.214;2022-12-17T03:54:28;30;28;
47982;PMS5003;33751;50.816;-1.214;2022-12-17T03:56:55;36;31;
47982;PMS5003;33751;50.816;-1.214;2022-12-17T03:59:22;32;28;
47982;PMS5003;33751;50.816;-1.214;2022-12-17T04:01:49;37;35;
47982;PMS5003;33751;50.816;-1.214;2022-12-17T04:04:16;33;28;
47982;PMS5003;33751;50.816;-1.214;2022-12-17T04:06:43;34;28;
47982;PMS5003;33751;50.816;-1.214;2022-12-17T04:09:10;26;25;
47982;PMS5003;33751;50.816;-1.214;2022-12-17T04:11:37;32;28;
47982;PMS5003;33751;50.816;-1.214;2022-12-17T04:14:04;41;38;
47982;PMS5003;33751;50.816;-1.214;2022-12-17T04:16:31;33;30;
47982;PMS5003;33751;50.816;-1.214;2022-12-17T04:18:57;37;30;
47982;PMS5003;33751;50.816;-1.214;2022-12-17T04:21:24;33;27;
47982;PMS5003;33751;50.816;-1.214;2022-12-17T04:23:51;32;30;
47982;PMS5003;33751;50.816;-1.214;2022-12-17T04:26:18;30;29;
47982;PMS5003;33751;50.816;-1.214;2022-12-17T04:28:45;35;32;
47982;PMS5003;33751;50.816;-1.214;2022-12-17T04:31:12;23;23;
47982;PMS5003;33751;50.816;-1.214;2022-12-17T04:33:39;35;30;
47982;PMS5003;33751;50.816;-1.214;2022-12-17T04:36:06;30;30;
47982;PMS5003;33751;50.816;-1.214;2022-12-17T04:38:33;33;29;
47982;PMS5003;33751;50.816;-1.214;2022-12-17T04:41:00;33;27;
47982;PMS5003;33751;50.816;-1.214;2022-12-17T04:43:27;34;29;
47982;PMS5003;33751;50.816;-1.214;2022-12-17T04:45:53;38;28;
47982;PMS5003;33751;50.816;-1.214;2022-12-17T04:48:20;37;29;
47982;PMS5003;33751;50.816;-1.214;2022-12-17T04:50:47;29;24;
47982;PMS5003;33751;50.816;-1.214;2022-12-17T04:53:13;34;33;
47982;PMS5003;33751;50.816;-1.214;2022-12-17T04:55:40;30;27;
47982;PMS5003;33751;50.816;-1.214;2022-12-17T04:58:08;37;32;
47982;PMS5003;33751;50.816;-1.214;2022-12-17T05:00:35;26;25;
47982;PMS5003;33751;50.816;-1.214;2022-12-17T05:03:03;32;29;
47982;PMS5003;33751;50.816;-1.214;2022-12-17T05:05:31;38;29;
47982;PMS5003;33751;50.816;-1.214;2022-12-17T05:07:57;32;29;
47982;PMS5003;33751;50.816;-1.214;2022-12-17T05:10:24;26;23;
47982;PMS5003;33751;50.816;-1.214;2022-12-17T05:12:54;27;25;
47982;PMS5003;33751;50.816;-1.214;2022-12-17T05:15:25;28;25;
47982;PMS5003;33751;50.816;-1.214;2022-12-17T05:17:52;32;28;
47982;PMS5003;33751;50.816;-1.214;2022-12-17T05:20:19;30;29;
47982;PMS5003;33751;50.816;-1.214;2022-12-17T05:22:46;32;26;
47982;PMS5003;33751;50.816;-1.214;2022-12-17T05:25:13;30;26;
47982;PMS5003;33751;50.816;-1.214;2022-12-17T05:27:40;33;30;
47982;PMS5003;33751;50.816;-1.214;2022-12-17T05:30:08;29;25;
47982;PMS5003;33751;50.816;-1.214;2022-12-17T05:32:35;28;27;
47982;PMS5003;33751;50.816;-1.214;2022-12-17T05:35:02;36;34;
47982;PMS5003;33751;50.816;-1.214;2022-12-17T05:37:30;26;26;
47982;PMS5003;33751;50.816;-1.214;2022-12-17T05:39:57;30;30;
47982;PMS5003;33751;50.816;-1.214;2022-12-17T05:42:24;23;22;
47982;PMS5003;33751;50.816;-1.214;2022-12-17T05:44:51;26;23;
47982;PMS5003;33751;50.816;-1.214;2022-12-17T05:47:18;33;24;
47982;PMS5003;33751;50.816;-1.214;2022-12-17T05:49:44;27;25;
47982;PMS5003;33751;50.816;-1.214;2022-12-17T05:52:12;24;23;
47982;PMS5003;33751;50.816;-1.214;2022-12-17T05:54:38;29;26;
47982;PMS5003;33751;50.816;-1.214;2022-12-17T05:57:05;30;29;
47982;PMS5003;33751;50.816;-1.214;2022-12-17T05:59:32;33;27;
47982;PMS5003;33751;50.816;-1.214;2022-12-17T06:01:58;30;26;
47982;PMS5003;33751;50.816;-1.214;2022-12-17T06:04:25;21;21;
47982;PMS5003;33751;50.816;-1.214;2022-12-17T06:06:52;27;26;
47982;PMS5003;33751;50.816;-1.214;2022-12-17T06:09:18;24;21;
47982;PMS5003;33751;50.816;-1.214;2022-12-17T06:11:45;21;21;
47982;PMS5003;33751;50.816;-1.214;2022-12-17T06:14:12;24;24;
47982;PMS5003;33751;50.816;-1.214;2022-12-17T06:16:40;31;28;
47982;PMS5003;33751;50.816;-1.214;2022-12-17T06:19:07;23;20;
47982;PMS5003;33751;50.816;-1.214;2022-12-17T06:21:34;27;23;
47982;PMS5003;33751;50.816;-1.214;2022-12-17T06:24:01;27;25;
47982;PMS5003;33751;50.816;-1.214;2022-12-17T06:26:28;33;28;
47982;PMS5003;33751;50.816;-1.214;2022-12-17T06:28:55;24;22;
47982;PMS5003;33751;50.816;-1.214;2022-12-17T06:31:22;29;28;
47982;PMS5003;33751;50.816;-1.214;2022-12-17T06:33:49;25;25;
47982;PMS5003;33751;50.816;-1.214;2022-12-17T06:36:16;18;17;
47982;PMS5003;33751;50.816;-1.214;2022-12-17T06:38:43;26;22;
47982;PMS5003;33751;50.816;-1.214;2022-12-17T06:41:10;26;23;
47982;PMS5003;33751;50.816;-1.214;2022-12-17T06:43:37;26;24;
47982;PMS5003;33751;50.816;-1.214;2022-12-17T06:46:04;22;20;
47982;PMS5003;33751;50.816;-1.214;2022-12-17T06:48:31;18;18;
47982;PMS5003;33751;50.816;-1.214;2022-12-17T06:50:57;25;18;
47982;PMS5003;33751;50.816;-1.214;2022-12-17T06:53:24;22;17;
47982;PMS5003;33751;50.816;-1.214;2022-12-17T06:55:51;23;21;
47982;PMS5003;33751;50.816;-1.214;2022-12-17T06:58:19;18;15;
47982;PMS5003;33751;50.816;-1.214;2022-12-17T07:00:45;17;17;
47982;PMS5003;33751;50.816;-1.214;2022-12-17T07:03:13;20;18;
47982;PMS5003;33751;50.816;-1.214;2022-12-17T07:05:39;18;18;
47982;PMS5003;33751;50.816;-1.214;2022-12-17T07:08:06;21;15;
47982;PMS5003;33751;50.816;-1.214;2022-12-17T07:10:34;15;15;
47982;PMS5003;33751;50.816;-1.214;2022-12-17T07:13:04;25;24;
47982;PMS5003;33751;50.816;-1.214;2022-12-17T07:15:32;19;18;
47982;PMS5003;33751;50.816;-1.214;2022-12-17T07:18:00;24;22;
47982;PMS5003;33751;50.816;-1.214;2022-12-17T07:20:28;22;18;
47982;PMS5003;33751;50.816;-1.214;2022-12-17T07:22:55;23;18;
47982;PMS5003;33751;50.816;-1.214;2022-12-17T07:25:22;25;17;
47982;PMS5003;33751;50.816;-1.214;2022-12-17T07:27:52;30;25;
47982;PMS5003;33751;50.816;-1.214;2022-12-17T07:30:20;17;15;
47982;PMS5003;33751;50.816;-1.214;2022-12-17T07:32:56;25;22;
47982;PMS5003;33751;50.816;-1.214;2022-12-17T07:35:24;18;15;
47982;PMS5003;33751;50.816;-1.214;2022-12-17T07:37:56;16;16;
47982;PMS5003;33751;50.816;-1.214;2022-12-17T07:40:24;15;13;
47982;PMS5003;33751;50.816;-1.214;2022-12-17T07:42:51;17;14;
47982;PMS5003;33751;50.816;-1.214;2022-12-17T07:45:18;17;15;
47982;PMS5003;33751;50.816;-1.214;2022-12-17T07:47:49;15;15;
47982;PMS5003;33751;50.816;-1.214;2022-12-17T07:50:17;22;20;
47982;PMS5003;33751;50.816;-1.214;2022-12-17T07:52:44;22;19;
47982;PMS5003;33751;50.816;-1.214;2022-12-17T07:55:11;14;14;
47982;PMS5003;33751;50.816;-1.214;2022-12-17T07:57:38;19;17;
47982;PMS5003;33751;50.816;-1.214;2022-12-17T08:00:06;12;11;
47982;PMS5003;33751;50.816;-1.214;2022-12-17T08:02:33;14;12;
47982;PMS5003;33751;50.816;-1.214;2022-12-17T08:05:00;14;11;
47982;PMS5003;33751;50.816;-1.214;2022-12-17T08:07:27;16;15;
47982;PMS5003;33751;50.816;-1.214;2022-12-17T08:09:53;13;13;
47982;PMS5003;33751;50.816;-1.214;2022-12-17T08:12:21;12;9;
47982;PMS5003;33751;50.816;-1.214;2022-12-17T08:14:48;10;10;
47982;PMS5003;33751;50.816;-1.214;2022-12-17T08:17:15;12;12;
47982;PMS5003;33751;50.816;-1.214;2022-12-17T08:19:42;13;11;
47982;PMS5003;33751;50.816;-1.214;2022-12-17T08:22:09;11;10;
47982;PMS5003;33751;50.816;-1.214;2022-12-17T08:24:36;10;10;
47982;PMS5003;33751;50.816;-1.214;2022-12-17T08:27:03;16;15;
47982;PMS5003;33751;50.816;-1.214;2022-12-17T08:29:30;11;11;
47982;PMS5003;33751;50.816;-1.214;2022-12-17T08:31:57;11;10;
47982;PMS5003;33751;50.816;-1.214;2022-12-17T08:34:24;8;7;
47982;PMS5003;33751;50.816;-1.214;2022-12-17T08:36:51;15;12;
47982;PMS5003;33751;50.816;-1.214;2022-12-17T08:39:19;8;7;
47982;PMS5003;33751;50.816;-1.214;2022-12-17T08:41:46;12;9;
47982;PMS5003;33751;50.816;-1.214;2022-12-17T08:44:13;6;6;
47982;PMS5003;33751;50.816;-1.214;2022-12-17T08:46:40;14;11;
47982;PMS5003;33751;50.816;-1.214;2022-12-17T08:49:06;9;9;
47982;PMS5003;33751;50.816;-1.214;2022-12-17T08:51:34;6;5;
47982;PMS5003;33751;50.816;-1.214;2022-12-17T08:54:00;8;8;
47982;PMS5003;33751;50.816;-1.214;2022-12-17T08:56:27;8;8;
47982;PMS5003;33751;50.816;-1.214;2022-12-17T08:58:53;10;10;
47982;PMS5003;33751;50.816;-1.214;2022-12-17T09:01:20;11;10;
47982;PMS5003;33751;50.816;-1.214;2022-12-17T09:03:47;6;5;
47982;PMS5003;33751;50.816;-1.214;2022-12-17T09:06:15;5;4;
47982;PMS5003;33751;50.816;-1.214;2022-12-17T09:08:42;2;2;
47982;PMS5003;33751;50.816;-1.214;2022-12-17T09:11:09;3;2;
47982;PMS5003;33751;50.816;-1.214;2022-12-17T09:13:36;2;2;
47982;PMS5003;33751;50.816;-1.214;2022-12-17T09:16:03;2;2;
47982;PMS5003;33751;50.816;-1.214;2022-12-17T09:18:31;1;1;
47982;PMS5003;33751;50.816;-1.214;2022-12-17T09:20:57;1;1;
47982;PMS5003;33751;50.816;-1.214;2022-12-17T09:23:24;3;2;
47982;PMS5003;33751;50.816;-1.214;2022-12-17T09:25:51;3;1;
47982;PMS5003;33751;50.816;-1.214;2022-12-17T09:28:18;0;0;
47982;PMS5003;33751;50.816;-1.214;2022-12-17T09:30:45;1;1;
47982;PMS5003;33751;50.816;-1.214;2022-12-17T09:33:13;1;1;
47982;PMS5003;33751;50.816;-1.214;2022-12-17T09:35:41;2;2;
47982;PMS5003;33751;50.816;-1.214;2022-12-17T09:38:07;1;1;
47982;PMS5003;33751;50.816;-1.214;2022-12-17T09:40:37;2;0;
47982;PMS5003;33751;50.816;-1.214;2022-12-17T09:43:07;3;3;
47982;PMS5003;33751;50.816;-1.214;2022-12-17T09:45:49;2;2;
47982;PMS5003;33751;50.816;-1.214;2022-12-17T09:48:28;1;1;
47982;PMS5003;33751;50.816;-1.214;2022-12-17T09:51:02;2;2;
47982;PMS5003;33751;50.816;-1.214;2022-12-17T09:53:31;1;1;
47982;PMS5003;33751;50.816;-1.214;2022-12-17T09:56:02;1;0;
47982;PMS5003;33751;50.816;-1.214;2022-12-17T09:58:30;1;1;
47982;PMS5003;33751;50.816;-1.214;2022-12-17T10:01:02;6;3;
47982;PMS5003;33751;50.816;-1.214;2022-12-17T10:03:31;2;2;
47982;PMS5003;33751;50.816;-1.214;2022-12-17T10:06:01;4;4;
47982;PMS5003;33751;50.816;-1.214;2022-12-17T10:08:33;2;2;
47982;PMS5003;33751;50.816;-1.214;2022-12-17T10:11:08;2;2;
47982;PMS5003;33751;50.816;-1.214;2022-12-17T10:13:45;1;1;
47982;PMS5003;33751;50.816;-1.214;2022-12-17T10:16:16;0;0;
47982;PMS5003;33751;50.816;-1.214;2022-12-17T10:18:46;0;0;
47982;PMS5003;33751;50.816;-1.214;2022-12-17T10:21:15;3;1;
47982;PMS5003;33751;50.816;-1.214;2022-12-17T10:23:44;3;2;
47982;PMS5003;33751;50.816;-1.214;2022-12-17T10:26:14;3;1;
47982;PMS5003;33751;50.816;-1.214;2022-12-17T10:28:42;2;1;
47982;PMS5003;33751;50.816;-1.214;2022-12-17T10:31:10;1;1;
47982;PMS5003;33751;50.816;-1.214;2022-12-17T10:33:41;1;1;
47982;PMS5003;33751;50.816;-1.214;2022-12-17T10:36:18;0;0;
47982;PMS5003;33751;50.816;-1.214;2022-12-17T10:38:52;1;1;
47982;PMS5003;33751;50.816;-1.214;2022-12-17T10:41:21;2;2;
47982;PMS5003;33751;50.816;-1.214;2022-12-17T10:43:48;1;1;
47982;PMS5003;33751;50.816;-1.214;2022-12-17T10:46:25;1;1;
47982;PMS5003;33751;50.816;-1.214;2022-12-17T10:49:02;1;1;
47982;PMS5003;33751;50.816;-1.214;2022-12-17T10:51:30;1;1;
47982;PMS5003;33751;50.816;-1.214;2022-12-17T10:53:59;0;0;
47982;PMS5003;33751;50.816;-1.214;2022-12-17T10:56:34;3;1;
47982;PMS5003;33751;50.816;-1.214;2022-12-17T10:59:00;2;2;
47982;PMS5003;33751;50.816;-1.214;2022-12-17T11:01:27;4;1;
47982;PMS5003;33751;50.816;-1.214;2022-12-17T11:03:55;3;3;
47982;PMS5003;33751;50.816;-1.214;2022-12-17T11:06:23;1;1;
47982;PMS5003;33751;50.816;-1.214;2022-12-17T11:08:55;1;1;
47982;PMS5003;33751;50.816;-1.214;2022-12-17T11:11:25;3;2;
47982;PMS5003;33751;50.816;-1.214;2022-12-17T11:13:52;4;2;
47982;PMS5003;33751;50.816;-1.214;2022-12-17T11:16:22;1;1;
47982;PMS5003;33751;50.816;-1.214;2022-12-17T11:18:54;3;1;
47982;PMS5003;33751;50.816;-1.214;2022-12-17T11:21:27;2;2;
47982;PMS5003;33751;50.816;-1.214;2022-12-17T11:23:59;2;2;
47982;PMS5003;33751;50.816;-1.214;2022-12-17T11:26:27;1;1;
47982;PMS5003;33751;50.816;-1.214;2022-12-17T11:28:59;1;1;
47982;PMS5003;33751;50.816;-1.214;2022-12-17T11:31:29;3;2;
47982;PMS5003;33751;50.816;-1.214;2022-12-17T11:34:07;1;1;
47982;PMS5003;33751;50.816;-1.214;2022-12-17T11:36:45;4;2;
47982;PMS5003;33751;50.816;-1.214;2022-12-17T11:39:19;3;3;
47982;PMS5003;33751;50.816;-1.214;2022-12-17T11:41:53;3;3;
47982;PMS5003;33751;50.816;-1.214;2022-12-17T11:44:28;5;3;
47982;PMS5003;33751;50.816;-1.214;2022-12-17T11:47:09;4;4;
47982;PMS5003;33751;50.816;-1.214;2022-12-17T11:49:44;2;2;
47982;PMS5003;33751;50.816;-1.214;2022-12-17T11:52:21;3;3;
47982;PMS5003;33751;50.816;-1.214;2022-12-17T11:54:56;2;2;
47982;PMS5003;33751;50.816;-1.214;2022-12-17T11:57:33;2;2;
47982;PMS5003;33751;50.816;-1.214;2022-12-17T12:00:11;3;1;
47982;PMS5003;33751;50.816;-1.214;2022-12-17T12:02:44;2;2;
47982;PMS5003;33751;50.816;-1.214;2022-12-17T12:05:23;2;2;
47982;PMS5003;33751;50.816;-1.214;2022-12-17T12:08:01;1;1;
47982;PMS5003;33751;50.816;-1.214;2022-12-17T12:10:34;2;2;
47982;PMS5003;33751;50.816;-1.214;2022-12-17T12:13:10;4;3;
47982;PMS5003;33751;50.816;-1.214;2022-12-17T12:15:47;6;4;
47982;PMS5003;33751;50.816;-1.214;2022-12-17T12:18:28;2;2;
47982;PMS5003;33751;50.816;-1.214;2022-12-17T12:21:09;4;2;
47982;PMS5003;33751;50.816;-1.214;2022-12-17T12:23:51;2;2;
47982;PMS5003;33751;50.816;-1.214;2022-12-17T12:26:29;4;3;
47982;PMS5003;33751;50.816;-1.214;2022-12-17T12:29:03;7;5;
47982;PMS5003;33751;50.816;-1.214;2022-12-17T12:31:38;14;7;
47982;PMS5003;33751;50.816;-1.214;2022-12-17T12:34:11;6;3;
47982;PMS5003;33751;50.816;-1.214;2022-12-17T12:36:43;4;4;
47982;PMS5003;33751;50.816;-1.214;2022-12-17T12:39:12;4;4;
47982;PMS5003;33751;50.816;-1.214;2022-12-17T12:41:46;2;2;
47982;PMS5003;33751;50.816;-1.214;2022-12-17T12:44:17;2;2;
47982;PMS5003;33751;50.816;-1.214;2022-12-17T12:46:57;6;5;
47982;PMS5003;33751;50.816;-1.214;2022-12-17T12:49:28;2;2;
47982;PMS5003;33751;50.816;-1.214;2022-12-17T12:52:01;4;2;
47982;PMS5003;33751;50.816;-1.214;2022-12-17T12:54:29;4;4;
47982;PMS5003;33751;50.816;-1.214;2022-12-17T12:56:57;5;4;
47982;PMS5003;33751;50.816;-1.214;2022-12-17T12:59:25;3;3;
47982;PMS5003;33751;50.816;-1.214;2022-12-17T13:01:53;1;1;
47982;PMS5003;33751;50.816;-1.214;2022-12-17T13:04:26;1;1;
47982;PMS5003;33751;50.816;-1.214;2022-12-17T13:06:56;2;2;
47982;PMS5003;33751;50.816;-1.214;2022-12-17T13:09:30;1;1;
47982;PMS5003;33751;50.816;-1.214;2022-12-17T13:12:16;1;1;
47982;PMS5003;33751;50.816;-1.214;2022-12-17T13:14:49;2;2;
47982;PMS5003;33751;50.816;-1.214;2022-12-17T13:17:25;3;3;
47982;PMS5003;33751;50.816;-1.214;2022-12-17T13:19:58;3;3;
47982;PMS5003;33751;50.816;-1.214;2022-12-17T13:22:28;2;2;
47982;PMS5003;33751;50.816;-1.214;2022-12-17T13:25:08;1;1;
47982;PMS5003;33751;50.816;-1.214;2022-12-17T13:27:41;3;1;
47982;PMS5003;33751;50.816;-1.214;2022-12-17T13:30:14;4;4;
47982;PMS5003;33751;50.816;-1.214;2022-12-17T13:32:48;1;1;
47982;PMS5003;33751;50.816;-1.214;2022-12-17T13:35:27;1;1;
47982;PMS5003;33751;50.816;-1.214;2022-12-17T13:38:07;0;0;
47982;PMS5003;33751;50.816;-1.214;2022-12-17T13:40:43;4;1;
47982;PMS5003;33751;50.816;-1.214;2022-12-17T13:43:15;5;4;
47982;PMS5003;33751;50.816;-1.214;2022-12-17T13:45:44;2;2;
47982;PMS5003;33751;50.816;-1.214;2022-12-17T13:48:17;2;2;
47982;PMS5003;33751;50.816;-1.214;2022-12-17T13:50:52;4;2;
47982;PMS5003;33751;50.816;-1.214;2022-12-17T13:53:20;2;2;
47982;PMS5003;33751;50.816;-1.214;2022-12-17T13:55:49;2;2;
47982;PMS5003;33751;50.816;-1.214;2022-12-17T13:58:19;1;1;
47982;PMS5003;33751;50.816;-1.214;2022-12-17T14:00:48;1;0;
47982;PMS5003;33751;50.816;-1.214;2022-12-17T14:03:17;1;1;
47982;PMS5003;33751;50.816;-1.214;2022-12-17T14:05:47;2;2;
47982;PMS5003;33751;50.816;-1.214;2022-12-17T14:08:15;3;3;
47982;PMS5003;33751;50.816;-1.214;2022-12-17T14:10:46;1;1;
47982;PMS5003;33751;50.816;-1.214;2022-12-17T14:13:17;1;1;
47982;PMS5003;33751;50.816;-1.214;2022-12-17T14:15:46;4;2;
47982;PMS5003;33751;50.816;-1.214;2022-12-17T14:18:16;3;2;
47982;PMS5003;33751;50.816;-1.214;2022-12-17T14:20:46;3;1;
47982;PMS5003;33751;50.816;-1.214;2022-12-17T14:23:19;3;3;
47982;PMS5003;33751;50.816;-1.214;2022-12-17T14:25:52;3;3;
47982;PMS5003;33751;50.816;-1.214;2022-12-17T14:28:20;2;2;
47982;PMS5003;33751;50.816;-1.214;2022-12-17T14:30:49;2;2;
47982;PMS5003;33751;50.816;-1.214;2022-12-17T14:33:23;1;1;
47982;PMS5003;33751;50.816;-1.214;2022-12-17T14:35:53;2;2;
47982;PMS5003;33751;50.816;-1.214;2022-12-17T14:38:20;2;2;
47982;PMS5003;33751;50.816;-1.214;2022-12-17T14:40:47;3;3;
47982;PMS5003;33751;50.816;-1.214;2022-12-17T14:43:14;3;3;
47982;PMS5003;33751;50.816;-1.214;2022-12-17T14:45:47;2;2;
47982;PMS5003;33751;50.816;-1.214;2022-12-17T14:48:16;2;2;
47982;PMS5003;33751;50.816;-1.214;2022-12-17T14:50:42;3;3;
47982;PMS5003;33751;50.816;-1.214;2022-12-17T14:53:23;1;1;
47982;PMS5003;33751;50.816;-1.214;2022-12-17T14:55:51;0;0;
47982;PMS5003;33751;50.816;-1.214;2022-12-17T14:58:21;2;2;
47982;PMS5003;33751;50.816;-1.214;2022-12-17T15:00:50;3;1;
47982;PMS5003;33751;50.816;-1.214;2022-12-17T15:03:21;2;2;
47982;PMS5003;33751;50.816;-1.214;2022-12-17T15:05:51;2;2;
47982;PMS5003;33751;50.816;-1.214;2022-12-17T15:08:22;2;2;
47982;PMS5003;33751;50.816;-1.214;2022-12-17T15:10:49;2;2;
47982;PMS5003;33751;50.816;-1.214;2022-12-17T15:13:16;3;3;
47982;PMS5003;33751;50.816;-1.214;2022-12-17T15:15:43;1;1;
47982;PMS5003;33751;50.816;-1.214;2022-12-17T15:18:10;3;3;
47982;PMS5003;33751;50.816;-1.214;2022-12-17T15:20:37;3;2;
47982;PMS5003;33751;50.816;-1.214;2022-12-17T15:23:04;3;2;
47982;PMS5003;33751;50.816;-1.214;2022-12-17T15:25:31;4;3;
47982;PMS5003;33751;50.816;-1.214;2022-12-17T15:27:57;2;2;
47982;PMS5003;33751;50.816;-1.214;2022-12-17T15:30:24;3;3;
47982;PMS5003;33751;50.816;-1.214;2022-12-17T15:32:51;5;5;
47982;PMS5003;33751;50.816;-1.214;2022-12-17T15:35:17;1;1;
47982;PMS5003;33751;50.816;-1.214;2022-12-17T15:37:45;6;4;
47982;PMS5003;33751;50.816;-1.214;2022-12-17T15:40:11;4;3;
47982;PMS5003;33751;50.816;-1.214;2022-12-17T15:42:39;3;3;
47982;PMS5003;33751;50.816;-1.214;2022-12-17T15:45:06;2;2;
47982;PMS5003;33751;50.816;-1.214;2022-12-17T15:47:34;5;3;
47982;PMS5003;33751;50.816;-1.214;2022-12-17T15:50:00;4;4;
47982;PMS5003;33751;50.816;-1.214;2022-12-17T15:52:27;5;4;
47982;PMS5003;33751;50.816;-1.214;2022-12-17T15:54:54;7;5;
47982;PMS5003;33751;50.816;-1.214;2022-12-17T15:57:20;4;4;
47982;PMS5003;33751;50.816;-1.214;2022-12-17T15:59:47;6;5;
47982;PMS5003;33751;50.816;-1.214;2022-12-17T16:02:16;5;5;
47982;PMS5003;33751;50.816;-1.214;2022-12-17T16:04:43;6;6;
47982;PMS5003;33751;50.816;-1.214;2022-12-17T16:07:10;6;6;
47982;PMS5003;33751;50.816;-1.214;2022-12-17T16:09:36;5;5;
47982;PMS5003;33751;50.816;-1.214;2022-12-17T16:12:03;7;7;
47982;PMS5003;33751;50.816;-1.214;2022-12-17T16:14:30;6;4;
47982;PMS5003;33751;50.816;-1.214;2022-12-17T16:16:57;13;10;
47982;PMS5003;33751;50.816;-1.214;2022-12-17T16:19:23;10;8;
47982;PMS5003;33751;50.816;-1.214;2022-12-17T16:21:50;11;8;
47982;PMS5003;33751;50.816;-1.214;2022-12-17T16:24:16;12;10;
47982;PMS5003;33751;50.816;-1.214;2022-12-17T16:26:43;8;8;